Norfolk — WDG2147 — position and weather

sailwx.info

Track history (hours):
 
Tides and Currents Weather Stations Pressure Air Temp Water Temp Dewpoint Dewpoint Depression Visibility Wind Speed Wind Dir Waves Ship Positions

Norfolk

Owner: Virginia Pilot Boat Corporation, Virginia Beach, VA. More information available from US FCC via Universal Licensing System and Coast Guard Vessel Documentation Center.

Last reported at 2017-Jul-28 18:57 UTC. Time now 2017-Aug-18 23:51 UTC.
Position N 36°54' W 076°05'.
Warning: this ship's position is 21 days out of date.

Length 18 m; draft 1.5 m.

Type: Pilot. MMSI: 367512630.

Date/timePositionNaut miles runAvg speedWind from/ knotsBaromVisibWave heightAir tempDewpointWater temp
2017-Jul-28 18:57N 36°54' W 076°05'0 0.0
2017-Jul-28 18:14N 36°54' W 076°05'0 0.0
2017-Jul-28 17:58N 36°54' W 076°05'0 0.0
2017-Jul-28 12:41N 36°54' W 076°05'0 0.0
2017-Jul-28 11:55N 36°54' W 076°05'0 0.0
2017-Jul-27 15:39N 36°54' W 076°05'0 0.0
2017-Jul-27 15:19N 36°54' W 076°05'0 0.0
2017-Jul-27 15:00N 36°54' W 076°05'0 0.0
2017-Jul-27 14:00N 36°54' W 076°05'0 0.0
2017-Jul-27 13:29N 36°54' W 076°05'0 0.0
2017-Jul-27 12:59N 36°54' W 076°05'0 0.0
2017-Jul-27 12:30N 36°54' W 076°05'0 0.0
2017-Jul-27 11:59N 36°54' W 076°05'0 0.0
2017-Jul-27 11:30N 36°54' W 076°05'0 0.0
2017-Jul-27 11:00N 36°54' W 076°05'0 0.0
2017-Jul-27 10:20N 36°54' W 076°05'0 0.0
2017-Jul-27 07:57N 36°54' W 076°05'0 0.0
2017-Jul-27 07:28N 36°54' W 076°05'0 0.0
2017-Jul-27 06:59N 36°54' W 076°05'0 0.0
2017-Jul-27 00:21N 36°54' W 076°05'0 0.0
2017-Jul-27 00:00N 36°54' W 076°05'0 0.0
2017-Jul-26 23:30N 36°54' W 076°05'0 0.0
2017-Jul-26 23:00N 36°54' W 076°05'0 0.0
2017-Jul-26 22:20N 36°54' W 076°05'0 0.0
2017-Jul-26 22:00N 36°54' W 076°05'0 0.0
2017-Jul-26 21:30N 36°54' W 076°05'0 0.0
2017-Jul-26 21:00N 36°54' W 076°05'0 0.0
2017-Jul-26 20:30N 36°54' W 076°05'0 0.0
2017-Jul-26 20:00N 36°54' W 076°05'0 0.0
2017-Jul-26 19:30N 36°54' W 076°05'0 0.0
2017-Jul-26 19:00N 36°54' W 076°05'0 0.0
2017-Jul-26 18:30N 36°54' W 076°05'0 0.0
2017-Jul-26 18:00N 36°54' W 076°05'0 0.0
2017-Jul-26 17:24N 36°54' W 076°05'0 0.0
2017-Jul-26 16:59N 36°54' W 076°05'0 0.0
2017-Jul-26 16:26N 36°54' W 076°05'0 0.0
2017-Jul-26 15:04N 36°54' W 076°05'0 0.0
2017-Jul-26 14:58N 36°54' W 076°05'0 0.0
2017-Jul-26 13:33N 36°54' W 076°05'0 0.0
2017-Jul-26 13:29N 36°54' W 076°05'0 0.0
2017-Jul-26 13:00N 36°54' W 076°05'0 0.0
2017-Jul-25 18:36N 36°54' W 076°05'0 0.0
2017-Jul-25 18:19N 36°54' W 076°05'0 0.0
2017-Jul-25 18:00N 36°54' W 076°05'0 0.0
2017-Jul-25 17:21N 36°54' W 076°05'0 0.0
2017-Jul-25 15:10N 36°54' W 076°05'0 0.0
2017-Jul-25 09:19N 36°54' W 076°05'5 9.4
2017-Jul-25 08:50N 36°57' W 076°00'2 4.4
2017-Jul-25 08:24N 36°58' W 076°03'4 1.1
2017-Jul-25 04:47N 36°54' W 076°05'4 9.7
2017-Jul-25 04:23N 36°57' W 076°02'4 0.3
2017-Jul-24 13:00N 36°54' W 076°05'0 0.0
2017-Jul-24 12:30N 36°54' W 076°05'2 4.6
2017-Jul-24 12:00N 36°56' W 076°03'2 4.9
2017-Jul-24 11:30N 36°54' W 076°05'0 0.0
2017-Jul-24 10:08N 36°54' W 076°05'0 0.0
2017-Jul-24 06:30N 36°54' W 076°05'815.0
2017-Jul-24 05:58N 36°55' W 075°55'8 0.8
2017-Jul-23 19:52N 36°54' W 076°05'0 0.0
2017-Jul-23 19:27N 36°54' W 076°05'714.8
2017-Jul-23 18:56N 36°55' W 075°56'716.7
2017-Jul-23 18:31N 36°55' W 076°05'1 0.2
2017-Jul-23 14:32N 36°54' W 076°05'0 1.2
2017-Jul-23 14:30N 36°54' W 076°05'3 5.1
2017-Jul-23 14:00N 36°57' W 076°04'1 1.4
2017-Jul-23 13:30N 36°57' W 076°03'1 2.1
2017-Jul-23 12:49N 36°56' W 076°02'3 9.7
2017-Jul-23 12:28N 36°54' W 076°05'1 3.0
2017-Jul-23 12:00N 36°56' W 076°04'711.5
2017-Jul-23 11:24N 36°56' W 075°56'820.0
2017-Jul-23 11:00N 36°55' W 076°05'1 0.4
2017-Jul-23 07:50N 36°56' W 076°05'0 0.1
2017-Jul-23 05:51N 36°56' W 076°05'2 1.3
2017-Jul-23 04:34N 36°54' W 076°05'1 9.6
2017-Jul-23 04:29N 36°55' W 076°05'1 0.2
2017-Jul-22 23:53N 36°54' W 076°05'510.0
2017-Jul-22 23:25N 36°57' W 076°00'1 2.1
2017-Jul-22 23:00N 36°57' W 076°02'3 4.9
2017-Jul-22 22:28N 36°56' W 076°04'1 1.8
2017-Jul-22 21:42N 36°54' W 076°05'3 2.0
2017-Jul-22 20:04N 36°58' W 076°05'122.3
2017-Jul-22 20:00N 36°56' W 076°05'2 3.9
2017-Jul-22 19:30N 36°54' W 076°05'610.7
2017-Jul-22 18:58N 36°58' W 075°60'612.2
2017-Jul-22 18:29N 36°54' W 076°05'0 0.0
2017-Jul-22 17:50N 36°54' W 076°05'412.2
2017-Jul-22 17:30N 36°57' W 076°01'3 1.5
2017-Jul-22 15:24N 36°56' W 076°05'3 1.9
2017-Jul-22 14:00N 36°56' W 076°02'2 2.4
2017-Jul-22 13:21N 36°56' W 076°04'2 5.7
2017-Jul-22 13:00N 36°54' W 076°06'2 3.5
2017-Jul-22 12:18N 36°56' W 076°03'2 0.6
2017-Jul-22 07:51N 36°54' W 076°05'2 2.1
2017-Jul-22 07:07N 36°56' W 076°04'1 0.1
2017-Jul-21 19:30N 36°54' W 076°05'816.2
2017-Jul-21 19:00N 36°54' W 075°55'610.9
2017-Jul-21 18:25N 36°56' W 076°03'2 5.3
2017-Jul-21 18:01N 36°54' W 076°05'0 0.0
2017-Jul-21 17:30N 36°54' W 076°05'0 0.0
2017-Jul-21 17:00N 36°54' W 076°05'0 0.0
2017-Jul-21 16:14N 36°54' W 076°05'0 0.1
2017-Jul-21 16:00N 36°54' W 076°05'0 0.0
2017-Jul-21 15:30N 36°54' W 076°05'0 0.0
2017-Jul-21 15:00N 36°54' W 076°05'0 0.0
2017-Jul-21 14:30N 36°54' W 076°05'0 0.0
2017-Jul-21 14:01N 36°54' W 076°05'0 0.0
2017-Jul-21 13:27N 36°54' W 076°05'0 0.0
2017-Jul-21 12:42N 36°54' W 076°05'0 0.0
2017-Jul-21 12:31N 36°54' W 076°05'0 0.0
2017-Jul-21 12:00N 36°54' W 076°05'0 0.0
2017-Jul-21 11:29N 36°54' W 076°05'0 0.0
2017-Jul-21 10:58N 36°54' W 076°05'0 0.0
2017-Jul-21 10:21N 36°54' W 076°05'0 0.0
2017-Jul-21 09:08N 36°54' W 076°05'0 0.1
2017-Jul-21 07:53N 36°54' W 076°05'1 1.1
2017-Jul-21 06:54N 36°55' W 076°05'1 2.8
2017-Jul-21 06:30N 36°54' W 076°05'612.7
2017-Jul-21 06:00N 36°60' W 076°01'6 0.7
2017-Jul-20 21:26N 36°54' W 076°05'612.1
2017-Jul-20 20:57N 36°56' W 075°58'3 6.2
2017-Jul-20 20:30N 36°56' W 076°02'3 4.1
2017-Jul-20 19:40N 36°54' W 076°05'2 1.3
2017-Jul-20 17:53N 36°57' W 076°05'2 5.8
2017-Jul-20 17:28N 36°54' W 076°05'0 0.0
2017-Jul-20 16:07N 36°54' W 076°05'1 9.4
2017-Jul-20 16:00N 36°55' W 076°05'3 4.8
2017-Jul-20 15:21N 36°56' W 076°01'410.9
2017-Jul-20 14:59N 36°54' W 076°05'0 0.0
2017-Jul-20 13:58N 36°54' W 076°05'0 0.0
2017-Jul-20 13:29N 36°54' W 076°05'0 0.0
2017-Jul-20 13:00N 36°54' W 076°05'0 0.0
2017-Jul-20 12:23N 36°54' W 076°05'916.9
2017-Jul-20 11:51N 36°57' W 075°54'721.2
2017-Jul-20 11:30N 36°56' W 076°03'2 2.2
2017-Jul-20 10:31N 36°54' W 076°05'0 4.5
2017-Jul-20 10:30N 36°54' W 076°05'0 0.0
2017-Jul-20 08:23N 36°54' W 076°05'816.2
2017-Jul-20 07:53N 36°55' W 075°55'817.9
2017-Jul-20 07:25N 36°54' W 076°05'3 0.6
2017-Jul-20 03:01N 36°57' W 076°05'122.2
2017-Jul-20 02:58N 36°56' W 076°05'0 0.0
2017-Jul-19 20:04N 36°56' W 076°05'121.9
2017-Jul-19 20:00N 36°55' W 076°05'1 1.0
2017-Jul-19 19:20N 36°54' W 076°05'814.1
2017-Jul-19 18:47N 36°55' W 075°56'621.7
2017-Jul-19 18:30N 36°56' W 076°04'2 0.6
2017-Jul-19 15:40N 36°54' W 076°05'0 0.0
2017-Jul-19 15:16N 36°54' W 076°05'415.4
2017-Jul-19 15:00N 36°57' W 076°01'4 2.9
2017-Jul-19 13:31N 36°54' W 076°05'0 0.0
2017-Jul-19 13:02N 36°54' W 076°05'0 0.4
2017-Jul-19 13:00N 36°54' W 076°05'4 4.5
2017-Jul-19 12:01N 36°57' W 076°01'0 6.4
2017-Jul-19 12:00N 36°57' W 076°01'4 1.6
2017-Jul-19 09:13N 36°54' W 076°05'0 0.0
2017-Jul-19 07:32N 36°54' W 076°05'114.0
2017-Jul-19 07:27N 36°55' W 076°05'0 0.1
2017-Jul-19 06:34N 36°55' W 076°05'115.1
2017-Jul-19 06:29N 36°54' W 076°06'0 0.1
2017-Jul-19 03:33N 36°54' W 076°05'0 0.0
2017-Jul-18 23:27N 36°54' W 076°05'0 0.0
2017-Jul-18 22:03N 36°54' W 076°05'111.0
2017-Jul-18 21:58N 36°55' W 076°05'3 5.5
2017-Jul-18 21:30N 36°57' W 076°03'  
Track history (hours):
 
Tides and Currents Weather Stations Pressure Air Temp Water Temp Dewpoint Dewpoint Depression Visibility Wind Speed Wind Dir Waves Ship Positions

Norfolk

Owner: Virginia Pilot Boat Corporation, Virginia Beach, VA. More information available from US FCC via Universal Licensing System and Coast Guard Vessel Documentation Center.

Last reported at 2017-Jul-28 18:57 UTC. Time now 2017-Aug-18 23:51 UTC.
Position N 36°54' W 076°05'.
Warning: this ship's position is 21 days out of date.

Length 18 m; draft 1.5 m.

Type: Pilot. MMSI: 367512630.

Date/timePositionNaut miles runAvg speedWind from/ knotsBaromVisibWave heightAir tempDewpointWater temp
2017-Jul-28 18:57N 36°54' W 076°05'0 0.0
2017-Jul-28 18:14N 36°54' W 076°05'0 0.0
2017-Jul-28 17:58N 36°54' W 076°05'0 0.0
2017-Jul-28 12:41N 36°54' W 076°05'0 0.0
2017-Jul-28 11:55N 36°54' W 076°05'0 0.0
2017-Jul-27 15:39N 36°54' W 076°05'0 0.0
2017-Jul-27 15:19N 36°54' W 076°05'0 0.0
2017-Jul-27 15:00N 36°54' W 076°05'0 0.0
2017-Jul-27 14:00N 36°54' W 076°05'0 0.0
2017-Jul-27 13:29N 36°54' W 076°05'0 0.0
2017-Jul-27 12:59N 36°54' W 076°05'0 0.0
2017-Jul-27 12:30N 36°54' W 076°05'0 0.0
2017-Jul-27 11:59N 36°54' W 076°05'0 0.0
2017-Jul-27 11:30N 36°54' W 076°05'0 0.0
2017-Jul-27 11:00N 36°54' W 076°05'0 0.0
2017-Jul-27 10:20N 36°54' W 076°05'0 0.0
2017-Jul-27 07:57N 36°54' W 076°05'0 0.0
2017-Jul-27 07:28N 36°54' W 076°05'0 0.0
2017-Jul-27 06:59N 36°54' W 076°05'0 0.0
2017-Jul-27 00:21N 36°54' W 076°05'0 0.0
2017-Jul-27 00:00N 36°54' W 076°05'0 0.0
2017-Jul-26 23:30N 36°54' W 076°05'0 0.0
2017-Jul-26 23:00N 36°54' W 076°05'0 0.0
2017-Jul-26 22:20N 36°54' W 076°05'0 0.0
2017-Jul-26 22:00N 36°54' W 076°05'0 0.0
2017-Jul-26 21:30N 36°54' W 076°05'0 0.0
2017-Jul-26 21:00N 36°54' W 076°05'0 0.0
2017-Jul-26 20:30N 36°54' W 076°05'0 0.0
2017-Jul-26 20:00N 36°54' W 076°05'0 0.0
2017-Jul-26 19:30N 36°54' W 076°05'0 0.0
2017-Jul-26 19:00N 36°54' W 076°05'0 0.0
2017-Jul-26 18:30N 36°54' W 076°05'0 0.0
2017-Jul-26 18:00N 36°54' W 076°05'0 0.0
2017-Jul-26 17:24N 36°54' W 076°05'0 0.0
2017-Jul-26 16:59N 36°54' W 076°05'0 0.0
2017-Jul-26 16:26N 36°54' W 076°05'0 0.0
2017-Jul-26 15:04N 36°54' W 076°05'0 0.0
2017-Jul-26 14:58N 36°54' W 076°05'0 0.0
2017-Jul-26 13:33N 36°54' W 076°05'0 0.0
2017-Jul-26 13:29N 36°54' W 076°05'0 0.0
2017-Jul-26 13:00N 36°54' W 076°05'0 0.0
2017-Jul-25 18:36N 36°54' W 076°05'0 0.0
2017-Jul-25 18:19N 36°54' W 076°05'0 0.0
2017-Jul-25 18:00N 36°54' W 076°05'0 0.0
2017-Jul-25 17:21N 36°54' W 076°05'0 0.0
2017-Jul-25 15:10N 36°54' W 076°05'0 0.0
2017-Jul-25 09:19N 36°54' W 076°05'5 9.4
2017-Jul-25 08:50N 36°57' W 076°00'2 4.4
2017-Jul-25 08:24N 36°58' W 076°03'4 1.1
2017-Jul-25 04:47N 36°54' W 076°05'4 9.7
2017-Jul-25 04:23N 36°57' W 076°02'4 0.3
2017-Jul-24 13:00N 36°54' W 076°05'0 0.0
2017-Jul-24 12:30N 36°54' W 076°05'2 4.6
2017-Jul-24 12:00N 36°56' W 076°03'2 4.9
2017-Jul-24 11:30N 36°54' W 076°05'0 0.0
2017-Jul-24 10:08N 36°54' W 076°05'0 0.0
2017-Jul-24 06:30N 36°54' W 076°05'815.0
2017-Jul-24 05:58N 36°55' W 075°55'8 0.8
2017-Jul-23 19:52N 36°54' W 076°05'0 0.0
2017-Jul-23 19:27N 36°54' W 076°05'714.8
2017-Jul-23 18:56N 36°55' W 075°56'716.7
2017-Jul-23 18:31N 36°55' W 076°05'1 0.2
2017-Jul-23 14:32N 36°54' W 076°05'0 1.2
2017-Jul-23 14:30N 36°54' W 076°05'3 5.1
2017-Jul-23 14:00N 36°57' W 076°04'1 1.4
2017-Jul-23 13:30N 36°57' W 076°03'1 2.1
2017-Jul-23 12:49N 36°56' W 076°02'3 9.7
2017-Jul-23 12:28N 36°54' W 076°05'1 3.0
2017-Jul-23 12:00N 36°56' W 076°04'711.5
2017-Jul-23 11:24N 36°56' W 075°56'820.0
2017-Jul-23 11:00N 36°55' W 076°05'1 0.4
2017-Jul-23 07:50N 36°56' W 076°05'0 0.1
2017-Jul-23 05:51N 36°56' W 076°05'2 1.3
2017-Jul-23 04:34N 36°54' W 076°05'1 9.6
2017-Jul-23 04:29N 36°55' W 076°05'1 0.2
2017-Jul-22 23:53N 36°54' W 076°05'510.0
2017-Jul-22 23:25N 36°57' W 076°00'1 2.1
2017-Jul-22 23:00N 36°57' W 076°02'3 4.9
2017-Jul-22 22:28N 36°56' W 076°04'1 1.8
2017-Jul-22 21:42N 36°54' W 076°05'3 2.0
2017-Jul-22 20:04N 36°58' W 076°05'122.3
2017-Jul-22 20:00N 36°56' W 076°05'2 3.9
2017-Jul-22 19:30N 36°54' W 076°05'610.7
2017-Jul-22 18:58N 36°58' W 075°60'612.2
2017-Jul-22 18:29N 36°54' W 076°05'0 0.0
2017-Jul-22 17:50N 36°54' W 076°05'412.2
2017-Jul-22 17:30N 36°57' W 076°01'3 1.5
2017-Jul-22 15:24N 36°56' W 076°05'3 1.9
2017-Jul-22 14:00N 36°56' W 076°02'2 2.4
2017-Jul-22 13:21N 36°56' W 076°04'2 5.7
2017-Jul-22 13:00N 36°54' W 076°06'2 3.5
2017-Jul-22 12:18N 36°56' W 076°03'2 0.6
2017-Jul-22 07:51N 36°54' W 076°05'2 2.1
2017-Jul-22 07:07N 36°56' W 076°04'1 0.1
2017-Jul-21 19:30N 36°54' W 076°05'816.2
2017-Jul-21 19:00N 36°54' W 075°55'610.9
2017-Jul-21 18:25N 36°56' W 076°03'2 5.3
2017-Jul-21 18:01N 36°54' W 076°05'0 0.0
2017-Jul-21 17:30N 36°54' W 076°05'0 0.0
2017-Jul-21 17:00N 36°54' W 076°05'0 0.0
2017-Jul-21 16:14N 36°54' W 076°05'0 0.1
2017-Jul-21 16:00N 36°54' W 076°05'0 0.0
2017-Jul-21 15:30N 36°54' W 076°05'0 0.0
2017-Jul-21 15:00N 36°54' W 076°05'0 0.0
2017-Jul-21 14:30N 36°54' W 076°05'0 0.0
2017-Jul-21 14:01N 36°54' W 076°05'0 0.0
2017-Jul-21 13:27N 36°54' W 076°05'0 0.0
2017-Jul-21 12:42N 36°54' W 076°05'0 0.0
2017-Jul-21 12:31N 36°54' W 076°05'0 0.0
2017-Jul-21 12:00N 36°54' W 076°05'0 0.0
2017-Jul-21 11:29N 36°54' W 076°05'0 0.0
2017-Jul-21 10:58N 36°54' W 076°05'0 0.0
2017-Jul-21 10:21N 36°54' W 076°05'0 0.0
2017-Jul-21 09:08N 36°54' W 076°05'0 0.1
2017-Jul-21 07:53N 36°54' W 076°05'1 1.1
2017-Jul-21 06:54N 36°55' W 076°05'1 2.8
2017-Jul-21 06:30N 36°54' W 076°05'612.7
2017-Jul-21 06:00N 36°60' W 076°01'6 0.7
2017-Jul-20 21:26N 36°54' W 076°05'612.1
2017-Jul-20 20:57N 36°56' W 075°58'3 6.2
2017-Jul-20 20:30N 36°56' W 076°02'3 4.1
2017-Jul-20 19:40N 36°54' W 076°05'2 1.3
2017-Jul-20 17:53N 36°57' W 076°05'2 5.8
2017-Jul-20 17:28N 36°54' W 076°05'0 0.0
2017-Jul-20 16:07N 36°54' W 076°05'1 9.4
2017-Jul-20 16:00N 36°55' W 076°05'3 4.8
2017-Jul-20 15:21N 36°56' W 076°01'410.9
2017-Jul-20 14:59N 36°54' W 076°05'0 0.0
2017-Jul-20 13:58N 36°54' W 076°05'0 0.0
2017-Jul-20 13:29N 36°54' W 076°05'0 0.0
2017-Jul-20 13:00N 36°54' W 076°05'0 0.0
2017-Jul-20 12:23N 36°54' W 076°05'916.9
2017-Jul-20 11:51N 36°57' W 075°54'721.2
2017-Jul-20 11:30N 36°56' W 076°03'2 2.2
2017-Jul-20 10:31N 36°54' W 076°05'0 4.5
2017-Jul-20 10:30N 36°54' W 076°05'0 0.0
2017-Jul-20 08:23N 36°54' W 076°05'816.2
2017-Jul-20 07:53N 36°55' W 075°55'817.9
2017-Jul-20 07:25N 36°54' W 076°05'3 0.6
2017-Jul-20 03:01N 36°57' W 076°05'122.2
2017-Jul-20 02:58N 36°56' W 076°05'0 0.0
2017-Jul-19 20:04N 36°56' W 076°05'121.9
2017-Jul-19 20:00N 36°55' W 076°05'1 1.0
2017-Jul-19 19:20N 36°54' W 076°05'814.1
2017-Jul-19 18:47N 36°55' W 075°56'621.7
2017-Jul-19 18:30N 36°56' W 076°04'2 0.6
2017-Jul-19 15:40N 36°54' W 076°05'0 0.0
2017-Jul-19 15:16N 36°54' W 076°05'415.4
2017-Jul-19 15:00N 36°57' W 076°01'4 2.9
2017-Jul-19 13:31N 36°54' W 076°05'0 0.0
2017-Jul-19 13:02N 36°54' W 076°05'0 0.4
2017-Jul-19 13:00N 36°54' W 076°05'4 4.5
2017-Jul-19 12:01N 36°57' W 076°01'0 6.4
2017-Jul-19 12:00N 36°57' W 076°01'4 1.6
2017-Jul-19 09:13N 36°54' W 076°05'0 0.0
2017-Jul-19 07:32N 36°54' W 076°05'114.0
2017-Jul-19 07:27N 36°55' W 076°05'0 0.1
2017-Jul-19 06:34N 36°55' W 076°05'115.1
2017-Jul-19 06:29N 36°54' W 076°06'0 0.1
2017-Jul-19 03:33N 36°54' W 076°05'0 0.0
2017-Jul-18 23:27N 36°54' W 076°05'0 0.0
2017-Jul-18 22:03N 36°54' W 076°05'111.0
2017-Jul-18 21:58N 36°55' W 076°05'3 5.5
2017-Jul-18 21:30N 36°57' W 076°03'  

Dump ship's entire track history